ADDS METAR Data INFO
IDs: Format: Raw Decoded Include TAF

Data at: 0713 UTC 24 Jun 2018

KGUL 240655Z AUTO 20023G31KT 10SM CLR 28/24 A2993 RMK A01
KGUL 240635Z AUTO 19027KT 10SM CLR 28/25 A2993 RMK A01
KGUL 240615Z AUTO 19023G29KT 10SM FEW018 28/25 A2993 RMK A01
KGUL 240555Z AUTO 19026KT 10SM CLR 28/25 A2993 RMK A01
KGUL 240535Z AUTO 19024KT 10SM CLR 28/25 A2993 RMK A01
KGUL 240515Z AUTO 18019KT 10SM CLR 28/25 A2994 RMK A01
KGUL 240455Z AUTO 18019G24KT 10SM FEW015 28/25 A2994 RMK A01
KGUL 240435Z AUTO 19022KT 10SM FEW015 FEW021 28/25 A2995 RMK A01
KGUL 240415Z AUTO 18015KT 10SM FEW015 SCT020 SCT026 28/25 A2996 RMK A01
KGUL 240355Z AUTO 17016KT 10SM FEW026 SCT035 SCT049 28/25 A2996 RMK A01
KGUL 240335Z AUTO 16017KT 10SM FEW020 FEW029 28/25 A2995 RMK A01
KGUL 240315Z AUTO 15016KT 10SM FEW014 SCT020 SCT028 28/25 A2995 RMK A01
KGUL 240255Z AUTO 13015KT 10SM FEW014 28/25 A2993 RMK A01
KGUL 240235Z AUTO 14014KT 10SM CLR 28/25 A2992 RMK A01
KGUL 240215Z AUTO 15016KT 10SM 28/25 A2991 RMK A01
KGUL 240155Z AUTO 14014KT 10SM 28/25 A2990 RMK A01
KGUL 240135Z AUTO 14013KT 10SM FEW018 FEW024 FEW032 28/25 A2990 RMK A01
KGUL 240115Z AUTO 13009KT 10SM FEW015 28/25 A2991 RMK A01
KGUL 240055Z AUTO 13010KT 9SM FEW015 28/25 A2990 RMK A01
KGUL 240035Z AUTO 14009KT FEW015 FEW020 28/25 A2990 RMK A01
KGUL 240015Z AUTO 13008KT 10SM FEW016 28/25 A2991 RMK A01
KGUL 232355Z AUTO 16008KT 10SM FEW016 28/25 A2990 RMK A01
KGUL 232335Z AUTO 18008KT 10SM FEW017 28/24 A2990 RMK A01
KGUL 232315Z AUTO 18009KT 10SM FEW018 28/25 A2990 RMK A01
KGUL 232255Z AUTO 19009KT 10SM FEW018 FEW024 28/24 A2990 RMK A01
KGUL 232235Z AUTO 19010KT 10SM FEW018 SCT024 28/24 A2991 RMK A01
KGUL 232215Z AUTO 20010KT 10SM FEW021 FEW026 28/24 A2991 RMK A01
KGUL 232155Z AUTO 18008KT 10SM CLR 28/24 A2992 RMK A01
KGUL 232135Z AUTO 21010KT 10SM FEW019 SCT026 SCT032 29/24 A2993 RMK A01
KGUL 232115Z AUTO 20009KT 10SM SCT019 BKN025 BKN032 29/25 A2994 RMK A01
KGUL 232055Z AUTO 21009KT 10SM SCT019 SCT028 29/24 A2993 RMK A01
KGUL 232035Z AUTO 20013KT 10SM SCT018 BKN023 BKN027 29/25 A2993 RMK A01
KGUL 232015Z AUTO 20013KT 10SM BKN020 BKN027 29/24 A2993 RMK A01
KGUL 231955Z AUTO 20010KT 10SM BKN018 BKN029 29/25 A2993 RMK A01
KGUL 231935Z AUTO 20013KT 10SM SCT018 SCT023 SCT029 29/24 A2994 RMK A01
KGUL 231915Z AUTO 20012KT 10SM FEW018 FEW023 29/24 A2995 RMK A01
KGUL 231855Z AUTO 21015KT 10SM FEW019 FEW032 29/24 A2994 RMK A01
KGUL 231835Z AUTO 20014KT 10SM FEW020 29/24 A2995 RMK A01
KGUL 231815Z AUTO 21015KT 10SM FEW020 FEW027 29/24 A2996 RMK A01
KGUL 231755Z AUTO 20013KT 10SM FEW020 SCT028 29/24 A2996 RMK A01
KGUL 231735Z AUTO 21015KT 10SM FEW020 FEW029 29/24 A2997 RMK A01
KGUL 231715Z AUTO 21016KT 10SM CLR 29/24 A2997 RMK A01
KGUL 231655Z AUTO 21016KT 10SM FEW021 29/24 A2997 RMK A01
KGUL 231635Z AUTO 21017KT 10SM FEW019 29/24 A2997 RMK A01
KGUL 231615Z AUTO 21018KT 10SM FEW019 FEW027 28/24 A2996 RMK A01
KGUL 231555Z AUTO 22019KT FEW026 28/24 A2996 RMK A01
KGUL 231535Z AUTO 21019KT 10SM FEW018 28/24 A2996 RMK A01
KGUL 231515Z AUTO 20016KT 10SM FEW019 29/24 A2996 RMK A01
KGUL 231455Z AUTO 21017KT 10SM SCT017 28/24 A2997 RMK A01
KGUL 231435Z AUTO 21017KT 9SM SCT019 SCT025 28/24 A2997 RMK A01
KGUL 231415Z AUTO 21019KT 10SM SCT018 SCT025 28/24 A2997 RMK A01
KGUL 231355Z AUTO 21020KT 10SM SCT018 SCT024 SCT030 28/24 A2997 RMK A01
KGUL 231335Z AUTO 20018KT 10SM SCT018 28/24 A2996 RMK A01
KGUL 231315Z AUTO 21018KT 10SM FEW019 28/24 A2995 RMK A01
KGUL 231255Z AUTO 21017KT 10SM FEW020 FEW032 28/24 A2995 RMK A01
KGUL 231235Z AUTO 21020KT 10SM FEW020 SCT025 SCT031 28/23 A2995 RMK A01
KGUL 231215Z AUTO 22019KT 10SM FEW020 FEW026 28/24 A2994 RMK A01
KGUL 231155Z AUTO 21021KT 9SM SCT019 28/24 A2993 RMK A01
KGUL 231135Z AUTO 21022KT 9SM SCT019 28/24 A2992 RMK A01
KGUL 231115Z AUTO 20020KT 10SM FEW018 27/24 A2991 RMK A01
KGUL 231055Z AUTO 20020KT 10SM 28/24 A2992 RMK A01
KGUL 231035Z AUTO 21019KT 10SM 28/24 A2991 RMK A01
KGUL 231015Z AUTO 21022KT 10SM 27/24 A2990 RMK A01
KGUL 230955Z AUTO 20019KT 10SM FEW016 28/24 A2990 RMK A01
KGUL 230935Z AUTO 21020KT 10SM 28/24 A2990 RMK A01
KGUL 230915Z AUTO 21019KT 10SM 28/24 A2990 RMK A01
KGUL 230855Z AUTO 21019KT 10SM 28/25 A2990 RMK A01
KGUL 230835Z AUTO 21020KT 10SM CLR 28/24 A2991 RMK A01
KGUL 230815Z AUTO 20018KT 10SM CLR 28/24 A2991 RMK A01
KGUL 230755Z AUTO 21021KT 10SM FEW015 28/24 A2991 RMK A01
KGUL 230735Z AUTO 20018G23KT 10SM FEW015 28/25 A2991 RMK A01
KGUL 230715Z AUTO 21023KT 10SM FEW014 28/25 A2992 RMK A01
KGUL 230655Z AUTO 20022KT 10SM CLR 28/25 A2992 RMK A01
KGUL 230635Z AUTO 20022KT 10SM FEW014 28/25 A2993 RMK A01
KGUL 230615Z AUTO 20018KT 10SM SCT013 SCT022 28/25 A2993 RMK A01
KGUL 230555Z AUTO 20021KT 10SM FEW014 SCT021 28/25 A2993 RMK A01
KGUL 230535Z AUTO 20021KT 9SM SCT012 SCT016 BKN020 28/25 A2993 RMK A01
KGUL 230515Z AUTO 20018KT 10SM BKN013 BKN021 28/25 A2993 RMK A01
KGUL 230455Z AUTO 20018KT 10SM SCT014 28/25 A2993 RMK A01
KGUL 230435Z AUTO 20015KT 10SM SCT013 SCT020 28/25 A2993 RMK A01
KGUL 230415Z AUTO 19014KT 10SM 28/25 A2993 RMK A01
KGUL 230355Z AUTO 20014KT 10SM FEW013 FEW019 SCT025 28/25 A2993 RMK A01
KGUL 230335Z AUTO 20010KT 10SM 28/25 A2993 RMK A01
KGUL 230315Z AUTO 19010KT 10SM 28/25 A2992 RMK A01
KGUL 230255Z AUTO 19008KT 10SM CLR 28/25 A2992 RMK A01
KGUL 230235Z AUTO 19007KT 10SM CLR 28/25 A2992 RMK A01
KGUL 230215Z AUTO 18006KT 10SM CLR 28/25 A2992 RMK A01
KGUL 230155Z AUTO 20007KT 10SM 28/25 A2992 RMK A01
KGUL 230135Z AUTO 21008KT 9SM CLR 28/25 A2991 RMK A01
KGUL 230115Z AUTO 21008KT 9SM CLR 28/25 A2991 RMK A01
KGUL 230055Z AUTO 20007KT 9SM FEW016 28/25 A2991 RMK A01
KGUL 230035Z AUTO 20007KT 9SM FEW018 28/25 A2991 RMK A01
KGUL 230015Z AUTO 20009KT 9SM FEW016 FEW037 28/25 A2991 RMK A01
KGUL 222355Z AUTO 20007KT 9SM FEW015 FEW020 28/25 A2991 RMK A01
KGUL 222335Z AUTO 21007KT 9SM CLR 28/25 A2991 RMK A01
KGUL 222315Z AUTO 20007KT 9SM FEW018 SCT024 28/25 A2992 RMK A01
KGUL 222255Z AUTO 22009KT 10SM FEW017 28/24 A2992 RMK A01
KGUL 222235Z AUTO 20007KT 10SM FEW019 28/24 A2993 RMK A01
KGUL 222215Z AUTO 21008KT 10SM FEW036 28/24 A2993 RMK A01
KGUL 222155Z AUTO 21008KT 10SM FEW035 28/24 A2993 RMK A01
KGUL 222135Z AUTO 22009KT 10SM FEW018 SCT024 28/24 A2994 RMK A01
KGUL 222115Z AUTO 21008KT 10SM SCT018 SCT024 29/24 A2995 RMK A01
KGUL 222055Z AUTO 22007KT 10SM FEW018 29/24 A2995 RMK A01
KGUL 222035Z AUTO 22009KT 10SM FEW018 SCT024 SCT028 29/24 A2996 RMK A01
KGUL 222015Z AUTO 23011KT 10SM FEW018 FEW025 SCT029 28/24 A2996 RMK A01
KGUL 221955Z AUTO 22012KT 10SM FEW017 28/24 A2996 RMK A01
KGUL 221935Z AUTO 22012KT 10SM FEW020 28/24 A2996 RMK A01
KGUL 221915Z AUTO 22012KT 10SM FEW021 28/24 A2996 RMK A01